Search METAR Data

METAR Data for ENTC:

ENTC 301150Z 24003KT 190V290 9999 NSC 25/10 Q1008 NOSIG RMK WIND 2600FT 22017KT